createdAt,value
2023-03-18T00:00:11.379Z,95.67
2023-03-18T00:02:40.173Z,91.88
2023-03-18T00:05:10.545Z,93.13
2023-03-18T00:07:38.152Z,98.12
2023-03-18T00:10:07.556Z,98.18
2023-03-18T00:12:35.283Z,95.22
2023-03-18T00:15:02.789Z,95.06
2023-03-18T00:17:30.254Z,100.00
2023-03-18T00:19:57.738Z,99.38
2023-03-18T00:22:26.592Z,96.06
2023-03-18T00:24:54.776Z,96.66
2023-03-18T00:27:22.523Z,93.85
2023-03-18T00:29:50.545Z,96.02
2023-03-18T00:32:18.126Z,94.19
2023-03-18T00:34:46.450Z,93.91
2023-03-18T00:37:18.879Z,96.90
2023-03-18T00:39:47.793Z,99.72
2023-03-18T00:42:15.739Z,100.00
2023-03-18T00:44:44.068Z,100.00
2023-03-18T00:47:11.616Z,97.90
2023-03-18T00:49:39.312Z,96.30
2023-03-18T00:52:07.435Z,96.02
2023-03-18T00:54:35.776Z,94.94
2023-03-18T00:57:05.415Z,94.81
2023-03-18T00:59:33.171Z,93.98
2023-03-18T01:02:00.697Z,95.35
2023-03-18T01:04:28.977Z,94.77
2023-03-18T01:06:57.108Z,94.78
2023-03-18T01:09:24.876Z,94.72
2023-03-18T01:11:52.919Z,95.78
2023-03-18T01:14:21.863Z,98.14
2023-03-18T01:16:49.589Z,97.88
2023-03-18T01:19:17.143Z,95.72
2023-03-18T01:21:44.933Z,97.39
2023-03-18T01:24:13.114Z,96.61
2023-03-18T01:26:40.629Z,96.23
2023-03-18T01:29:08.128Z,96.31
2023-03-18T01:31:37.700Z,97.80
2023-03-18T01:34:05.656Z,98.31
2023-03-18T01:36:33.301Z,97.36
2023-03-18T01:39:00.863Z,97.53
2023-03-18T01:41:28.711Z,98.78
2023-03-18T01:43:56.389Z,99.07
2023-03-18T01:46:40.612Z,99.00
2023-03-18T01:49:12.711Z,98.09
2023-03-18T01:51:42.968Z,97.19
2023-03-18T01:54:12.828Z,95.98
2023-03-18T01:56:43.959Z,98.38
2023-03-18T01:59:12.260Z,99.61
2023-03-18T02:01:46.613Z,98.95
2023-03-18T02:06:41.143Z,95.26
2023-03-18T02:09:09.345Z,96.97
2023-03-18T02:11:39.668Z,99.91
2023-03-18T02:14:09.603Z,98.24
2023-03-18T02:16:47.346Z,98.67
2023-03-18T02:19:27.380Z,97.64
2023-03-18T02:22:02.082Z,97.42
2023-03-18T02:24:39.170Z,97.56
2023-03-18T02:27:16.975Z,98.60
2023-03-18T02:29:45.362Z,98.13
2023-03-18T02:32:14.824Z,97.42
2023-03-18T02:34:43.912Z,98.60
2023-03-18T02:37:11.449Z,99.89
2023-03-18T02:39:39.081Z,100.00
2023-03-18T02:42:07.051Z,100.00
2023-03-18T02:44:41.211Z,98.44
2023-03-18T02:47:12.262Z,98.19
2023-03-18T02:49:39.742Z,98.61
2023-03-18T02:52:07.580Z,99.53
2023-03-18T02:54:35.042Z,100.00
2023-03-18T02:57:02.873Z,100.00
2023-03-18T02:59:32.325Z,99.74
2023-03-18T03:02:02.051Z,99.54
2023-03-18T03:04:30.511Z,99.01
2023-03-18T03:07:01.404Z,98.05
2023-03-18T03:09:28.923Z,98.17
2023-03-18T03:11:56.392Z,97.60
2023-03-18T03:14:23.921Z,99.79
2023-03-18T03:16:51.833Z,97.37
2023-03-18T03:19:20.680Z,95.52
2023-03-18T03:21:48.395Z,96.16
2023-03-18T03:24:16.323Z,96.40
2023-03-18T03:26:43.801Z,97.16
2023-03-18T03:29:12.561Z,98.33
2023-03-18T03:31:40.483Z,97.51
2023-03-18T03:34:08.295Z,96.29
2023-03-18T03:36:37.210Z,96.19
2023-03-18T03:39:06.095Z,96.66
2023-03-18T03:41:33.916Z,97.44
2023-03-18T03:44:01.394Z,97.86
2023-03-18T03:46:28.892Z,98.38
2023-03-18T03:48:56.355Z,97.74
2023-03-18T03:51:23.925Z,97.08
2023-03-18T03:53:52.749Z,95.95
2023-03-18T03:56:20.327Z,95.29
2023-03-18T03:58:47.868Z,94.45
2023-03-18T04:01:15.419Z,95.69
2023-03-18T04:03:42.894Z,95.46
2023-03-18T04:06:11.103Z,94.99
2023-03-18T04:08:38.601Z,95.19
2023-03-18T04:11:07.515Z,95.81
2023-03-18T04:13:34.987Z,95.72
2023-03-18T04:16:02.497Z,95.93
2023-03-18T04:18:29.949Z,98.68
2023-03-18T04:20:57.509Z,100.00
2023-03-18T04:23:25.627Z,100.00
2023-03-18T04:25:53.365Z,100.00
2023-03-18T04:28:22.184Z,99.69
2023-03-18T04:30:50.513Z,98.14
2023-03-18T04:33:18.033Z,96.56
2023-03-18T04:35:45.555Z,96.23
2023-03-18T04:38:13.121Z,94.66
2023-03-18T04:40:40.865Z,93.23
2023-03-18T04:43:09.921Z,92.60
2023-03-18T04:45:38.825Z,92.93
2023-03-18T04:48:06.828Z,92.91
2023-03-18T04:50:34.361Z,91.79
2023-03-18T04:53:01.870Z,91.63
2023-03-18T04:55:29.442Z,92.02
2023-03-18T04:57:56.954Z,91.45
2023-03-18T05:00:24.834Z,91.52
2023-03-18T05:02:53.651Z,91.40
2023-03-18T05:05:21.212Z,91.35
2023-03-18T05:07:48.700Z,90.81
2023-03-18T05:10:16.507Z,90.96
2023-03-18T05:12:44.162Z,91.56
2023-03-18T05:15:13.071Z,92.93
2023-03-18T05:17:41.262Z,93.18
2023-03-18T05:20:13.315Z,93.52
2023-03-18T05:22:41.095Z,93.08
2023-03-18T05:25:11.053Z,92.66
2023-03-18T05:27:38.585Z,94.10
2023-03-18T05:30:07.165Z,95.79
2023-03-18T05:32:34.725Z,94.71
2023-03-18T05:35:03.715Z,93.43
2023-03-18T05:37:32.773Z,90.34
2023-03-18T05:40:00.237Z,91.29
2023-03-18T05:42:28.072Z,94.09
2023-03-18T05:44:56.930Z,94.73
2023-03-18T05:47:24.518Z,96.81
2023-03-18T05:49:52.002Z,97.46
2023-03-18T05:52:19.448Z,93.13
2023-03-18T05:54:48.271Z,89.77
2023-03-18T05:57:15.748Z,89.15
2023-03-18T05:59:43.806Z,89.24
2023-03-18T06:02:11.695Z,86.98
2023-03-18T06:04:40.085Z,87.50
2023-03-18T06:07:07.578Z,83.21
2023-03-18T06:09:35.106Z,84.85
2023-03-18T06:12:05.408Z,83.27
2023-03-18T06:14:32.871Z,82.87
2023-03-18T06:17:00.400Z,82.97
2023-03-18T06:19:30.629Z,82.54
2023-03-18T06:21:58.743Z,82.27
2023-03-18T06:24:26.417Z,81.88
2023-03-18T06:26:54.370Z,79.70
2023-03-18T06:29:23.174Z,76.11
2023-03-18T06:31:50.770Z,75.87
2023-03-18T06:34:19.071Z,74.50
2023-03-18T06:36:46.562Z,75.17
2023-03-18T06:39:14.321Z,75.15
2023-03-18T06:41:41.800Z,74.91
2023-03-18T06:44:09.280Z,73.43
2023-03-18T06:46:38.173Z,73.09
2023-03-18T06:49:05.674Z,73.18
2023-03-18T06:51:33.559Z,71.48
2023-03-18T06:54:01.465Z,69.23
2023-03-18T06:56:28.919Z,69.75
2023-03-18T06:58:56.367Z,66.72
2023-03-18T07:01:23.826Z,64.36
2023-03-18T07:03:52.695Z,65.07
2023-03-18T07:06:20.172Z,63.20
2023-03-18T07:08:47.606Z,61.44
2023-03-18T07:11:15.120Z,60.99
2023-03-18T07:13:42.570Z,58.26
2023-03-18T07:16:10.643Z,57.90
2023-03-18T07:18:38.562Z,57.47
2023-03-18T07:21:07.763Z,57.62
2023-03-18T07:23:35.237Z,57.18
2023-03-18T07:26:02.897Z,57.85
2023-03-18T07:28:30.376Z,57.70
2023-03-18T07:30:57.916Z,56.80
2023-03-18T07:33:25.853Z,56.03
2023-03-18T07:35:53.350Z,54.43
2023-03-18T07:38:22.166Z,52.27
2023-03-18T07:40:49.613Z,52.37
2023-03-18T07:43:17.293Z,51.94
2023-03-18T07:45:45.253Z,52.66
2023-03-18T07:48:12.717Z,52.40
2023-03-18T07:50:40.838Z,53.05
2023-03-18T07:53:08.402Z,53.83
2023-03-18T07:55:37.198Z,53.09
2023-03-18T07:58:05.397Z,52.59
2023-03-18T08:00:33.400Z,51.81
2023-03-18T08:03:00.853Z,51.11
2023-03-18T08:05:28.542Z,50.89
2023-03-18T08:07:56.196Z,50.46
2023-03-18T08:10:25.210Z,49.83
2023-03-18T08:12:54.210Z,49.18
2023-03-18T08:15:22.302Z,49.10
2023-03-18T08:17:49.858Z,49.43
2023-03-18T08:20:17.540Z,48.04
2023-03-18T08:22:45.922Z,47.47
2023-03-18T08:25:13.490Z,46.88
2023-03-18T08:27:41.039Z,46.91
2023-03-18T08:30:11.225Z,46.09
2023-03-18T08:32:38.984Z,46.07
2023-03-18T08:35:07.479Z,44.14
2023-03-18T08:37:35.805Z,43.57
2023-03-18T08:40:03.686Z,43.79
2023-03-18T08:42:31.131Z,43.64
2023-03-18T08:44:58.627Z,42.59
2023-03-18T08:47:29.382Z,42.46
2023-03-18T08:49:57.656Z,41.95
2023-03-18T08:52:25.495Z,41.97
2023-03-18T08:54:53.006Z,42.68
2023-03-18T08:57:20.733Z,42.58
2023-03-18T08:59:48.194Z,43.23
2023-03-18T09:02:18.312Z,42.84
2023-03-18T09:04:48.133Z,41.73
2023-03-18T09:07:18.849Z,41.24
2023-03-18T09:09:46.571Z,40.38
2023-03-18T09:12:14.969Z,40.32
2023-03-18T09:14:43.538Z,41.04
2023-03-18T09:17:11.227Z,39.98
2023-03-18T09:19:38.732Z,38.85
2023-03-18T09:22:08.826Z,38.63
2023-03-18T09:24:36.276Z,38.21
2023-03-18T09:27:03.780Z,38.36
2023-03-18T09:29:31.894Z,39.00
2023-03-18T09:32:00.539Z,38.57
2023-03-18T09:34:28.123Z,39.08
2023-03-18T09:36:55.586Z,38.57
2023-03-18T09:39:24.410Z,38.95
2023-03-18T09:42:08.328Z,38.83
2023-03-18T09:44:37.377Z,37.08
2023-03-18T09:47:24.543Z,35.37
2023-03-18T09:50:22.336Z,35.10
2023-03-18T09:52:56.706Z,35.88
2023-03-18T09:55:31.048Z,36.27
2023-03-18T09:58:03.301Z,36.82
2023-03-18T10:00:34.433Z,36.77
2023-03-18T10:03:06.643Z,35.62
2023-03-18T10:05:38.010Z,36.01
2023-03-18T10:08:14.183Z,35.85
2023-03-18T10:10:46.815Z,35.97
2023-03-18T10:13:22.573Z,36.55
2023-03-18T10:15:53.933Z,36.08
2023-03-18T10:18:27.839Z,35.06
2023-03-18T10:21:12.230Z,35.85
2023-03-18T10:23:52.413Z,34.07
2023-03-18T10:26:27.946Z,34.44
2023-03-18T10:29:19.155Z,33.68
2023-03-18T10:32:00.638Z,33.44
2023-03-18T10:34:34.846Z,32.98
2023-03-18T10:37:07.718Z,32.89
2023-03-18T10:39:37.893Z,32.92
2023-03-18T10:42:20.544Z,33.20
2023-03-18T10:44:48.719Z,31.80
2023-03-18T10:47:21.037Z,31.50
2023-03-18T10:49:59.396Z,31.48
2023-03-18T10:52:34.640Z,31.25
2023-03-18T10:55:02.127Z,30.94
2023-03-18T10:57:32.513Z,30.95
2023-03-18T10:59:59.949Z,31.24
2023-03-18T11:02:34.155Z,32.02
2023-03-18T11:05:05.451Z,32.81
2023-03-18T11:07:33.236Z,33.06
2023-03-18T11:10:13.959Z,31.56
2023-03-18T11:12:43.452Z,31.06
2023-03-18T11:15:12.797Z,30.12
2023-03-18T11:17:40.769Z,30.68
2023-03-18T11:20:22.001Z,30.23
2023-03-18T11:22:52.126Z,30.13
2023-03-18T11:25:24.001Z,30.27
2023-03-18T11:27:58.072Z,29.99
2023-03-18T11:30:34.465Z,29.74
2023-03-18T11:33:06.999Z,30.80
2023-03-18T11:35:40.670Z,31.43
2023-03-18T11:38:15.883Z,32.43
2023-03-18T11:40:43.643Z,31.96
2023-03-18T11:43:19.657Z,32.54
2023-03-18T11:45:52.213Z,30.78
2023-03-18T11:48:28.942Z,30.01
2023-03-18T11:51:10.686Z,30.24
2023-03-18T11:53:51.181Z,30.22
2023-03-18T11:56:28.328Z,30.24
2023-03-18T11:59:22.702Z,29.13
2023-03-18T12:02:01.271Z,29.18
2023-03-18T12:04:46.224Z,29.42
2023-03-18T12:07:27.314Z,30.11
2023-03-18T12:10:04.279Z,29.33
2023-03-18T12:12:49.630Z,29.12
2023-03-18T12:15:31.528Z,28.47
2023-03-18T12:18:07.355Z,28.62
2023-03-18T12:20:49.232Z,28.72
2023-03-18T12:23:43.705Z,28.74
2023-03-18T12:26:16.634Z,29.71
2023-03-18T12:29:09.464Z,29.79
2023-03-18T12:31:54.539Z,30.33
2023-03-18T12:34:35.810Z,29.66
2023-03-18T12:37:18.777Z,30.69
2023-03-18T12:40:18.587Z,31.50
2023-03-18T12:43:03.250Z,31.29
2023-03-18T12:45:36.620Z,30.78
2023-03-18T12:48:11.049Z,30.48
2023-03-18T12:50:42.375Z,30.21
2023-03-18T12:53:16.737Z,29.98
2023-03-18T12:55:47.883Z,30.43
2023-03-18T12:58:19.045Z,30.07
2023-03-18T13:00:52.216Z,29.54
2023-03-18T13:03:32.186Z,29.15
2023-03-18T13:06:04.583Z,28.63
2023-03-18T13:08:50.631Z,28.94
2023-03-18T13:11:37.469Z,29.93
2023-03-18T13:14:12.155Z,30.36
2023-03-18T13:16:41.151Z,29.86
2023-03-18T13:19:11.782Z,30.71
2023-03-18T13:21:44.224Z,30.34
2023-03-18T13:24:32.779Z,30.79
2023-03-18T13:27:26.613Z,30.95
2023-03-18T13:30:02.756Z,29.80
2023-03-18T13:32:54.060Z,29.59
2023-03-18T13:35:44.835Z,30.60
2023-03-18T13:38:29.088Z,30.03
2023-03-18T13:41:14.845Z,30.48
2023-03-18T13:43:49.069Z,29.79
2023-03-18T13:46:20.948Z,29.09
2023-03-18T13:48:50.038Z,29.15
2023-03-18T13:51:49.265Z,29.31
2023-03-18T13:54:20.649Z,29.67
2023-03-18T13:56:52.716Z,30.01
2023-03-18T13:59:48.462Z,29.31
2023-03-18T14:02:43.606Z,30.14
2023-03-18T14:05:36.848Z,30.47
2023-03-18T14:08:07.086Z,29.53
2023-03-18T14:10:36.366Z,29.78
2023-03-18T14:13:27.415Z,30.08
2023-03-18T14:15:57.366Z,31.75
2023-03-18T14:18:28.111Z,31.46
2023-03-18T14:21:01.361Z,30.91
2023-03-18T14:23:42.878Z,31.79
2023-03-18T14:26:23.381Z,32.49
2023-03-18T14:28:56.006Z,32.39
2023-03-18T14:31:33.336Z,32.56
2023-03-18T14:34:20.731Z,32.42
2023-03-18T14:37:18.713Z,32.57
2023-03-18T14:39:49.154Z,31.15
2023-03-18T14:42:29.661Z,31.18
2023-03-18T14:45:04.550Z,30.56
2023-03-18T14:47:42.393Z,31.56
2023-03-18T14:50:17.015Z,33.22
2023-03-18T14:52:49.397Z,33.19
2023-03-18T14:55:20.592Z,33.31
2023-03-18T14:57:49.440Z,33.26
2023-03-18T15:00:18.323Z,33.28
2023-03-18T15:02:46.590Z,33.26
2023-03-18T15:05:18.763Z,33.06
2023-03-18T15:07:52.710Z,34.02
2023-03-18T15:10:21.930Z,34.29
2023-03-18T15:13:00.960Z,34.46
2023-03-18T15:15:28.438Z,34.59
2023-03-18T15:17:55.915Z,34.53
2023-03-18T15:20:24.120Z,35.49
2023-03-18T15:22:52.766Z,35.94
2023-03-18T15:25:22.957Z,36.95
2023-03-18T15:27:51.381Z,36.73
2023-03-18T15:30:29.075Z,36.73
2023-03-18T15:33:04.545Z,37.15
2023-03-18T15:35:32.736Z,37.88
2023-03-18T15:38:08.107Z,37.53
2023-03-18T15:40:37.938Z,37.57
2023-03-18T15:43:17.729Z,38.29
2023-03-18T15:45:48.691Z,38.28
2023-03-18T15:48:24.571Z,38.65
2023-03-18T15:50:56.870Z,38.68
2023-03-18T15:53:26.820Z,38.90
2023-03-18T15:55:56.354Z,39.05
2023-03-18T15:58:27.292Z,38.37
2023-03-18T16:00:57.742Z,38.67
2023-03-18T16:03:27.149Z,39.70
2023-03-18T16:05:55.135Z,39.23
2023-03-18T16:08:23.643Z,40.50
2023-03-18T16:10:54.574Z,41.00
2023-03-18T16:13:24.534Z,41.77
2023-03-18T16:15:53.136Z,42.31
2023-03-18T16:18:22.071Z,42.99
2023-03-18T16:20:50.315Z,43.47
2023-03-18T16:23:19.086Z,43.26
2023-03-18T16:25:48.780Z,43.75
2023-03-18T16:28:20.616Z,44.02
2023-03-18T16:30:49.500Z,43.87
2023-03-18T16:33:18.932Z,44.28
2023-03-18T16:35:58.438Z,43.91
2023-03-18T16:38:28.372Z,43.57
2023-03-18T16:40:57.478Z,43.20
2023-03-18T16:43:27.247Z,44.29
2023-03-18T16:45:58.426Z,44.54
2023-03-18T16:48:27.692Z,45.37
2023-03-18T16:50:57.887Z,45.46
2023-03-18T16:53:27.606Z,45.74
2023-03-18T16:55:58.262Z,45.76
2023-03-18T16:58:29.729Z,46.24
2023-03-18T17:00:57.888Z,47.33
2023-03-18T17:03:25.402Z,48.22
2023-03-18T17:05:53.774Z,48.90
2023-03-18T17:08:23.023Z,49.71
2023-03-18T17:10:52.565Z,51.07
2023-03-18T17:13:23.285Z,52.32
2023-03-18T17:15:52.068Z,52.94
2023-03-18T17:18:21.717Z,53.71
2023-03-18T17:20:49.935Z,54.34
2023-03-18T17:23:19.524Z,54.67
2023-03-18T17:25:53.709Z,55.50
2023-03-18T17:28:34.355Z,58.02
2023-03-18T17:31:02.150Z,57.55
2023-03-18T17:33:31.906Z,58.31
2023-03-18T17:36:01.551Z,58.84
2023-03-18T17:38:30.660Z,59.49
2023-03-18T17:41:00.272Z,60.91
2023-03-18T17:43:30.212Z,63.88
2023-03-18T17:45:58.819Z,66.50
2023-03-18T17:48:28.542Z,68.61
2023-03-18T17:50:58.266Z,69.07
2023-03-18T17:53:28.678Z,69.00
2023-03-18T17:55:57.097Z,70.24
2023-03-18T17:58:27.586Z,69.96
2023-03-18T18:00:57.857Z,69.37
2023-03-18T18:03:27.724Z,68.52
2023-03-18T18:05:56.283Z,69.04
2023-03-18T18:08:25.979Z,69.92
2023-03-18T18:10:55.630Z,69.24
2023-03-18T18:13:23.894Z,69.32
2023-03-18T18:15:52.771Z,70.07
2023-03-18T18:18:25.366Z,71.62
2023-03-18T18:20:55.687Z,73.09
2023-03-18T18:23:35.405Z,76.06
2023-03-18T18:26:04.971Z,76.40
2023-03-18T18:28:34.619Z,76.66
2023-03-18T18:31:05.376Z,78.32
2023-03-18T18:33:34.529Z,80.94
2023-03-18T18:36:02.775Z,83.01
2023-03-18T18:38:30.765Z,83.33
2023-03-18T18:41:00.029Z,83.06
2023-03-18T18:43:27.861Z,82.71
2023-03-18T18:45:57.494Z,82.59
2023-03-18T18:48:30.333Z,86.26
2023-03-18T18:50:58.517Z,87.74
2023-03-18T18:53:27.849Z,86.15
2023-03-18T18:55:57.616Z,83.46
2023-03-18T18:58:29.464Z,82.26
2023-03-18T19:00:57.693Z,81.16
2023-03-18T19:03:31.003Z,82.18
2023-03-18T19:05:59.677Z,82.92
2023-03-18T19:08:31.390Z,89.29
2023-03-18T19:11:00.910Z,97.38
2023-03-18T19:13:30.624Z,99.40
2023-03-18T19:16:00.745Z,94.01
2023-03-18T19:18:35.752Z,91.70
2023-03-18T19:21:03.201Z,92.24
2023-03-18T19:23:33.162Z,91.81
2023-03-18T19:26:01.569Z,91.69
2023-03-18T19:28:47.858Z,91.80
2023-03-18T19:31:20.596Z,95.28
2023-03-18T19:33:51.590Z,94.24
2023-03-18T19:36:25.158Z,93.00
2023-03-18T19:38:53.520Z,92.34
2023-03-18T19:41:21.572Z,96.40
2023-03-18T19:43:49.546Z,100.00
2023-03-18T19:46:18.817Z,100.00
2023-03-18T19:48:47.003Z,96.09
2023-03-18T19:51:16.587Z,94.97
2023-03-18T19:53:45.198Z,98.39
2023-03-18T19:56:25.126Z,98.10
2023-03-18T19:58:54.008Z,100.00
2023-03-18T20:01:22.007Z,97.52
2023-03-18T20:03:50.121Z,98.40
2023-03-18T20:06:18.912Z,94.11
2023-03-18T20:08:46.571Z,92.42
2023-03-18T20:11:15.470Z,92.73
2023-03-18T20:13:44.105Z,95.74
2023-03-18T20:16:14.608Z,100.00
2023-03-18T20:18:42.751Z,100.00
2023-03-18T20:21:18.573Z,100.00
2023-03-18T20:23:47.504Z,100.00
2023-03-18T20:26:15.665Z,99.55
2023-03-18T20:28:45.454Z,99.87
2023-03-18T20:31:14.352Z,99.93
2023-03-18T20:33:41.881Z,100.00
2023-03-18T20:36:16.217Z,100.00
2023-03-18T20:38:45.983Z,100.00
2023-03-18T20:41:17.869Z,100.00
2023-03-18T20:43:45.577Z,100.00
2023-03-18T20:46:15.570Z,100.00
2023-03-18T20:48:44.190Z,100.00
2023-03-18T20:51:21.101Z,100.00
2023-03-18T20:53:49.298Z,100.00
2023-03-18T20:56:19.352Z,100.00
2023-03-18T20:58:46.851Z,100.00
2023-03-18T21:01:14.980Z,99.88
2023-03-18T21:03:42.894Z,97.72
2023-03-18T21:06:13.916Z,96.38
2023-03-18T21:08:42.007Z,95.37
2023-03-18T21:11:20.963Z,95.29
2023-03-18T21:13:48.920Z,94.24
2023-03-18T21:16:18.261Z,95.35
2023-03-18T21:18:46.392Z,94.68
2023-03-18T21:21:20.560Z,94.20
2023-03-18T21:23:48.205Z,93.43
2023-03-18T21:26:15.933Z,94.05
2023-03-18T21:28:44.754Z,96.85
2023-03-18T21:31:23.859Z,99.24
2023-03-18T21:33:51.446Z,96.96
2023-03-18T21:36:18.969Z,96.61
2023-03-18T21:38:46.929Z,98.48
2023-03-18T21:41:22.074Z,98.63
2023-03-18T21:43:51.499Z,99.59
2023-03-18T21:46:21.161Z,100.00
2023-03-18T21:48:48.976Z,100.00
2023-03-18T21:51:37.471Z,100.00
2023-03-18T21:54:06.210Z,100.00
2023-03-18T21:56:33.859Z,100.00
2023-03-18T21:59:02.654Z,100.00
2023-03-18T22:01:32.218Z,100.00
2023-03-18T22:03:59.990Z,100.00
2023-03-18T22:06:27.492Z,100.00
2023-03-18T22:08:56.723Z,100.00
2023-03-18T22:11:24.184Z,100.00
2023-03-18T22:13:51.704Z,100.00
2023-03-18T22:16:20.594Z,100.00
2023-03-18T22:18:48.198Z,100.00
2023-03-18T22:21:19.914Z,100.00
2023-03-18T22:23:47.430Z,100.00
2023-03-18T22:26:16.683Z,100.00
2023-03-18T22:28:44.592Z,100.00
2023-03-18T22:31:20.767Z,100.00
2023-03-18T22:33:48.413Z,100.00
2023-03-18T22:36:17.272Z,100.00
2023-03-18T22:38:45.807Z,100.00
2023-03-18T22:41:20.988Z,100.00
2023-03-18T22:43:48.825Z,100.00
2023-03-18T22:46:16.584Z,100.00
2023-03-18T22:48:45.523Z,100.00
2023-03-18T22:51:22.887Z,100.00
2023-03-18T22:53:52.636Z,100.00
2023-03-18T22:56:21.152Z,100.00
2023-03-18T22:58:48.640Z,100.00
2023-03-18T23:01:18.560Z,100.00
2023-03-18T23:03:47.814Z,100.00
2023-03-18T23:06:17.537Z,100.00
2023-03-18T23:08:46.472Z,100.00
2023-03-18T23:11:14.982Z,100.00
2023-03-18T23:13:43.685Z,100.00
2023-03-18T23:16:15.261Z,100.00
2023-03-18T23:18:42.952Z,100.00
2023-03-18T23:21:16.667Z,100.00
2023-03-18T23:23:44.221Z,100.00
2023-03-18T23:26:11.796Z,100.00
2023-03-18T23:28:44.549Z,100.00
2023-03-18T23:31:13.339Z,100.00
2023-03-18T23:33:40.970Z,100.00
2023-03-18T23:36:09.258Z,100.00
2023-03-18T23:38:38.671Z,100.00
2023-03-18T23:41:07.048Z,100.00
2023-03-18T23:43:34.622Z,100.00
2023-03-18T23:46:03.611Z,100.00
2023-03-18T23:48:31.105Z,100.00
2023-03-18T23:50:58.620Z,100.00
2023-03-18T23:53:26.119Z,100.00
2023-03-18T23:55:54.914Z,100.00
2023-03-18T23:58:22.431Z,100.00
